SBOSBO XRY / LEJR
Speedbird OnlineSpeedbird Online XRY / LEJR

Jerez Airport
02:53 3.2°C

Location Jerez, Spain
Latitude: 36.744598388671875
Longitude: -6.060110092163086
Web Airport Website | Wikipedia
Altitude 28 Meter / 93 Feet
Distance 1,712 KM / 1,064 Miles
from London.
Time Zone UTC +1 hours (Europe/Madrid)
Codes IATA: XRY
ICAO: LEJR
Currency £1 equals EUR 1.14
Runways
RunwayLength (m)Surface
022300Asphalt
202300Asphalt
Radio
TypeDescriptionFrequency
APPAPP128.5
GNDGND121.6
TWRTWR118.55
Live ATC
METAR LEJR 270130Z AUTO 29001KT CAVOK 02/M00 Q1017
TAF TAF LEJR 262000Z 2621/2721 01005KT CAVOK TX14/2714Z TNM00/2707Z
Weather As Of 27 Jan 2023 02:53
Description Clear sky
Wind 5 km/h from North-West (338°)
Cloud Cover 0%
Precipitation Rain: none, Snow: none
Sunrise 08:30
Sunset 18:43
Rotations During the last 90 days there were
1 flights from LGW
2 flights to SVQ



Support Speedbird Online

© 2017-2023 Speedbird Online